sensor_id;sensor_type;location;lat;lon;timestamp;P1;durP1;ratioP1;P2;durP2;ratioP2
35909;SDS011;22004;49.120;-0.200;2022-08-19T00:02:11;5.30;;;3.47;;
35909;SDS011;22004;49.120;-0.200;2022-08-19T00:04:36;5.35;;;3.75;;
35909;SDS011;22004;49.120;-0.200;2022-08-19T00:07:03;6.43;;;3.10;;
35909;SDS011;22004;49.120;-0.200;2022-08-19T00:09:29;4.88;;;3.22;;
35909;SDS011;22004;49.120;-0.200;2022-08-19T00:11:55;5.22;;;3.47;;
35909;SDS011;22004;49.120;-0.200;2022-08-19T00:14:21;4.45;;;2.90;;
35909;SDS011;22004;49.120;-0.200;2022-08-19T00:16:49;4.43;;;3.08;;
35909;SDS011;22004;49.120;-0.200;2022-08-19T00:19:16;5.18;;;2.97;;
35909;SDS011;22004;49.120;-0.200;2022-08-19T00:21:43;8.80;;;3.17;;
35909;SDS011;22004;49.120;-0.200;2022-08-19T00:24:09;6.30;;;2.97;;
35909;SDS011;22004;49.120;-0.200;2022-08-19T00:26:37;6.90;;;2.95;;
35909;SDS011;22004;49.120;-0.200;2022-08-19T00:29:03;5.18;;;2.92;;
35909;SDS011;22004;49.120;-0.200;2022-08-19T00:31:30;5.38;;;3.00;;
35909;SDS011;22004;49.120;-0.200;2022-08-19T00:33:56;7.15;;;3.17;;
35909;SDS011;22004;49.120;-0.200;2022-08-19T00:36:22;6.28;;;2.63;;
35909;SDS011;22004;49.120;-0.200;2022-08-19T00:38:47;9.05;;;2.88;;
35909;SDS011;22004;49.120;-0.200;2022-08-19T00:41:14;12.25;;;3.33;;
35909;SDS011;22004;49.120;-0.200;2022-08-19T00:43:42;6.85;;;3.28;;
35909;SDS011;22004;49.120;-0.200;2022-08-19T00:46:07;5.93;;;2.97;;
35909;SDS011;22004;49.120;-0.200;2022-08-19T00:48:33;6.25;;;2.80;;
35909;SDS011;22004;49.120;-0.200;2022-08-19T00:51:00;6.10;;;3.03;;
35909;SDS011;22004;49.120;-0.200;2022-08-19T00:53:27;9.38;;;2.83;;
35909;SDS011;22004;49.120;-0.200;2022-08-19T00:55:56;8.63;;;2.95;;
35909;SDS011;22004;49.120;-0.200;2022-08-19T00:58:24;10.32;;;3.00;;
35909;SDS011;22004;49.120;-0.200;2022-08-19T01:00:53;7.45;;;3.20;;
35909;SDS011;22004;49.120;-0.200;2022-08-19T01:03:19;5.95;;;2.70;;
35909;SDS011;22004;49.120;-0.200;2022-08-19T01:05:47;5.50;;;2.85;;
35909;SDS011;22004;49.120;-0.200;2022-08-19T01:08:14;6.05;;;3.08;;
35909;SDS011;22004;49.120;-0.200;2022-08-19T01:10:42;4.38;;;2.55;;
35909;SDS011;22004;49.120;-0.200;2022-08-19T01:13:11;6.28;;;2.70;;
35909;SDS011;22004;49.120;-0.200;2022-08-19T01:15:40;4.32;;;2.95;;
35909;SDS011;22004;49.120;-0.200;2022-08-19T01:18:09;5.90;;;3.17;;
35909;SDS011;22004;49.120;-0.200;2022-08-19T01:20:36;4.20;;;2.58;;
35909;SDS011;22004;49.120;-0.200;2022-08-19T01:23:02;7.85;;;2.47;;
35909;SDS011;22004;49.120;-0.200;2022-08-19T01:25:32;5.78;;;2.58;;
35909;SDS011;22004;49.120;-0.200;2022-08-19T01:28:04;8.27;;;3.10;;
35909;SDS011;22004;49.120;-0.200;2022-08-19T01:30:32;7.97;;;2.58;;
35909;SDS011;22004;49.120;-0.200;2022-08-19T01:32:59;5.65;;;3.00;;
35909;SDS011;22004;49.120;-0.200;2022-08-19T01:35:29;6.65;;;2.70;;
35909;SDS011;22004;49.120;-0.200;2022-08-19T01:37:58;9.75;;;2.75;;
35909;SDS011;22004;49.120;-0.200;2022-08-19T01:40:27;3.55;;;2.63;;
35909;SDS011;22004;49.120;-0.200;2022-08-19T01:42:55;7.15;;;2.70;;
35909;SDS011;22004;49.120;-0.200;2022-08-19T01:45:22;5.70;;;2.15;;
35909;SDS011;22004;49.120;-0.200;2022-08-19T01:47:49;6.50;;;2.78;;
35909;SDS011;22004;49.120;-0.200;2022-08-19T01:50:15;6.95;;;2.75;;
35909;SDS011;22004;49.120;-0.200;2022-08-19T01:52:42;5.30;;;2.45;;
35909;SDS011;22004;49.120;-0.200;2022-08-19T01:55:10;4.05;;;2.45;;
35909;SDS011;22004;49.120;-0.200;2022-08-19T01:57:39;7.10;;;2.92;;
35909;SDS011;22004;49.120;-0.200;2022-08-19T02:00:08;5.53;;;2.45;;
35909;SDS011;22004;49.120;-0.200;2022-08-19T02:02:35;8.80;;;2.88;;
35909;SDS011;22004;49.120;-0.200;2022-08-19T02:05:01;3.88;;;2.35;;
35909;SDS011;22004;49.120;-0.200;2022-08-19T02:07:26;5.18;;;2.40;;
35909;SDS011;22004;49.120;-0.200;2022-08-19T02:09:53;6.85;;;3.10;;
35909;SDS011;22004;49.120;-0.200;2022-08-19T02:12:20;3.72;;;2.50;;
35909;SDS011;22004;49.120;-0.200;2022-08-19T02:14:45;7.18;;;3.28;;
35909;SDS011;22004;49.120;-0.200;2022-08-19T02:17:11;9.27;;;3.47;;
35909;SDS011;22004;49.120;-0.200;2022-08-19T02:19:36;11.88;;;3.92;;
35909;SDS011;22004;49.120;-0.200;2022-08-19T02:22:02;10.30;;;3.42;;
35909;SDS011;22004;49.120;-0.200;2022-08-19T02:24:27;8.90;;;3.28;;
35909;SDS011;22004;49.120;-0.200;2022-08-19T02:26:53;8.30;;;3.00;;
35909;SDS011;22004;49.120;-0.200;2022-08-19T02:29:19;3.13;;;2.75;;
35909;SDS011;22004;49.120;-0.200;2022-08-19T02:31:45;11.38;;;3.40;;
35909;SDS011;22004;49.120;-0.200;2022-08-19T02:34:11;8.82;;;3.63;;
35909;SDS011;22004;49.120;-0.200;2022-08-19T02:36:36;6.18;;;3.28;;
35909;SDS011;22004;49.120;-0.200;2022-08-19T02:39:02;8.52;;;3.58;;
35909;SDS011;22004;49.120;-0.200;2022-08-19T02:41:30;8.05;;;4.10;;
35909;SDS011;22004;49.120;-0.200;2022-08-19T02:43:57;6.75;;;3.40;;
35909;SDS011;22004;49.120;-0.200;2022-08-19T02:46:26;9.23;;;3.28;;
35909;SDS011;22004;49.120;-0.200;2022-08-19T02:48:54;6.10;;;3.20;;
35909;SDS011;22004;49.120;-0.200;2022-08-19T02:51:23;10.90;;;3.20;;
35909;SDS011;22004;49.120;-0.200;2022-08-19T02:53:50;10.60;;;3.90;;
35909;SDS011;22004;49.120;-0.200;2022-08-19T02:56:16;8.02;;;3.53;;
35909;SDS011;22004;49.120;-0.200;2022-08-19T02:58:42;5.97;;;3.38;;
35909;SDS011;22004;49.120;-0.200;2022-08-19T03:01:08;12.70;;;4.47;;
35909;SDS011;22004;49.120;-0.200;2022-08-19T03:03:35;8.80;;;3.53;;
35909;SDS011;22004;49.120;-0.200;2022-08-19T03:06:11;9.20;;;3.35;;
35909;SDS011;22004;49.120;-0.200;2022-08-19T03:08:39;7.18;;;3.10;;
35909;SDS011;22004;49.120;-0.200;2022-08-19T03:11:06;7.57;;;3.28;;
35909;SDS011;22004;49.120;-0.200;2022-08-19T03:13:36;5.47;;;3.10;;
35909;SDS011;22004;49.120;-0.200;2022-08-19T03:16:04;8.35;;;3.22;;
35909;SDS011;22004;49.120;-0.200;2022-08-19T03:18:30;6.68;;;3.08;;
35909;SDS011;22004;49.120;-0.200;2022-08-19T03:20:55;8.18;;;3.05;;
35909;SDS011;22004;49.120;-0.200;2022-08-19T03:23:21;6.30;;;2.70;;
35909;SDS011;22004;49.120;-0.200;2022-08-19T03:25:48;7.13;;;2.60;;
35909;SDS011;22004;49.120;-0.200;2022-08-19T03:28:15;7.65;;;2.92;;
35909;SDS011;22004;49.120;-0.200;2022-08-19T03:30:42;9.55;;;3.10;;
35909;SDS011;22004;49.120;-0.200;2022-08-19T03:33:21;4.65;;;2.78;;
35909;SDS011;22004;49.120;-0.200;2022-08-19T03:35:46;6.45;;;2.90;;
35909;SDS011;22004;49.120;-0.200;2022-08-19T03:38:12;6.55;;;3.13;;
35909;SDS011;22004;49.120;-0.200;2022-08-19T03:40:37;4.22;;;2.75;;
35909;SDS011;22004;49.120;-0.200;2022-08-19T03:43:03;5.13;;;2.55;;
35909;SDS011;22004;49.120;-0.200;2022-08-19T03:45:28;9.30;;;2.90;;
35909;SDS011;22004;49.120;-0.200;2022-08-19T03:47:54;6.68;;;3.03;;
35909;SDS011;22004;49.120;-0.200;2022-08-19T03:50:20;5.82;;;3.10;;
35909;SDS011;22004;49.120;-0.200;2022-08-19T03:52:49;6.75;;;2.88;;
35909;SDS011;22004;49.120;-0.200;2022-08-19T03:55:15;6.30;;;3.03;;
35909;SDS011;22004;49.120;-0.200;2022-08-19T03:57:42;7.07;;;3.40;;
35909;SDS011;22004;49.120;-0.200;2022-08-19T04:00:07;7.75;;;2.90;;
35909;SDS011;22004;49.120;-0.200;2022-08-19T04:02:34;5.38;;;2.63;;
35909;SDS011;22004;49.120;-0.200;2022-08-19T04:04:59;5.65;;;2.60;;
35909;SDS011;22004;49.120;-0.200;2022-08-19T04:07:24;17.17;;;3.00;;
35909;SDS011;22004;49.120;-0.200;2022-08-19T04:09:50;9.02;;;2.90;;
35909;SDS011;22004;49.120;-0.200;2022-08-19T04:12:17;6.57;;;2.80;;
35909;SDS011;22004;49.120;-0.200;2022-08-19T04:14:42;7.00;;;2.90;;
35909;SDS011;22004;49.120;-0.200;2022-08-19T04:17:07;5.78;;;2.40;;
35909;SDS011;22004;49.120;-0.200;2022-08-19T04:19:34;10.50;;;2.97;;
35909;SDS011;22004;49.120;-0.200;2022-08-19T04:22:00;6.55;;;2.70;;
35909;SDS011;22004;49.120;-0.200;2022-08-19T04:24:26;6.45;;;2.63;;
35909;SDS011;22004;49.120;-0.200;2022-08-19T04:26:52;5.85;;;2.58;;
35909;SDS011;22004;49.120;-0.200;2022-08-19T04:29:22;6.63;;;2.38;;
35909;SDS011;22004;49.120;-0.200;2022-08-19T04:31:50;7.53;;;2.63;;
35909;SDS011;22004;49.120;-0.200;2022-08-19T04:34:19;6.63;;;2.30;;
35909;SDS011;22004;49.120;-0.200;2022-08-19T04:36:49;6.55;;;2.78;;
35909;SDS011;22004;49.120;-0.200;2022-08-19T04:39:25;8.23;;;2.80;;
35909;SDS011;22004;49.120;-0.200;2022-08-19T04:42:14;3.97;;;2.67;;
35909;SDS011;22004;49.120;-0.200;2022-08-19T04:44:59;8.23;;;3.03;;
35909;SDS011;22004;49.120;-0.200;2022-08-19T04:47:24;7.65;;;3.05;;
35909;SDS011;22004;49.120;-0.200;2022-08-19T04:49:49;5.60;;;2.60;;
35909;SDS011;22004;49.120;-0.200;2022-08-19T04:52:15;4.63;;;2.53;;
35909;SDS011;22004;49.120;-0.200;2022-08-19T04:54:40;5.43;;;2.40;;
35909;SDS011;22004;49.120;-0.200;2022-08-19T04:57:06;5.03;;;2.60;;
35909;SDS011;22004;49.120;-0.200;2022-08-19T04:59:33;6.75;;;2.60;;
35909;SDS011;22004;49.120;-0.200;2022-08-19T05:01:59;6.05;;;2.80;;
35909;SDS011;22004;49.120;-0.200;2022-08-19T05:04:24;7.90;;;2.38;;
35909;SDS011;22004;49.120;-0.200;2022-08-19T05:06:50;6.55;;;3.00;;
35909;SDS011;22004;49.120;-0.200;2022-08-19T05:09:17;5.55;;;2.60;;
35909;SDS011;22004;49.120;-0.200;2022-08-19T05:11:42;7.03;;;2.50;;
35909;SDS011;22004;49.120;-0.200;2022-08-19T05:14:09;3.30;;;2.28;;
35909;SDS011;22004;49.120;-0.200;2022-08-19T05:16:37;5.43;;;2.47;;
35909;SDS011;22004;49.120;-0.200;2022-08-19T05:19:02;7.07;;;2.88;;
35909;SDS011;22004;49.120;-0.200;2022-08-19T05:21:46;4.78;;;2.67;;
35909;SDS011;22004;49.120;-0.200;2022-08-19T05:24:30;3.60;;;2.08;;
35909;SDS011;22004;49.120;-0.200;2022-08-19T05:26:58;6.53;;;2.90;;
35909;SDS011;22004;49.120;-0.200;2022-08-19T05:29:25;6.30;;;2.65;;
35909;SDS011;22004;49.120;-0.200;2022-08-19T05:31:52;5.53;;;2.45;;
35909;SDS011;22004;49.120;-0.200;2022-08-19T05:34:20;5.10;;;2.75;;
35909;SDS011;22004;49.120;-0.200;2022-08-19T05:36:49;4.07;;;2.50;;
35909;SDS011;22004;49.120;-0.200;2022-08-19T05:39:21;7.85;;;2.67;;
35909;SDS011;22004;49.120;-0.200;2022-08-19T05:41:49;6.22;;;2.72;;
35909;SDS011;22004;49.120;-0.200;2022-08-19T05:44:17;7.43;;;3.00;;
35909;SDS011;22004;49.120;-0.200;2022-08-19T05:46:44;5.68;;;2.95;;
35909;SDS011;22004;49.120;-0.200;2022-08-19T05:49:12;5.93;;;2.60;;
35909;SDS011;22004;49.120;-0.200;2022-08-19T05:51:38;6.82;;;3.22;;
35909;SDS011;22004;49.120;-0.200;2022-08-19T05:54:04;6.30;;;2.60;;
35909;SDS011;22004;49.120;-0.200;2022-08-19T05:56:30;6.32;;;2.33;;
35909;SDS011;22004;49.120;-0.200;2022-08-19T05:58:56;8.50;;;3.50;;
35909;SDS011;22004;49.120;-0.200;2022-08-19T06:01:23;4.90;;;2.53;;
35909;SDS011;22004;49.120;-0.200;2022-08-19T06:03:50;7.65;;;2.90;;
35909;SDS011;22004;49.120;-0.200;2022-08-19T06:06:16;5.47;;;2.80;;
35909;SDS011;22004;49.120;-0.200;2022-08-19T06:08:42;6.75;;;2.30;;
35909;SDS011;22004;49.120;-0.200;2022-08-19T06:13:41;5.20;;;2.42;;
35909;SDS011;22004;49.120;-0.200;2022-08-19T06:16:07;4.88;;;2.60;;
35909;SDS011;22004;49.120;-0.200;2022-08-19T06:18:32;5.40;;;2.55;;
35909;SDS011;22004;49.120;-0.200;2022-08-19T06:20:58;5.13;;;2.63;;
35909;SDS011;22004;49.120;-0.200;2022-08-19T06:23:23;5.50;;;2.80;;
35909;SDS011;22004;49.120;-0.200;2022-08-19T06:25:49;8.13;;;2.80;;
35909;SDS011;22004;49.120;-0.200;2022-08-19T06:28:14;5.65;;;2.47;;
35909;SDS011;22004;49.120;-0.200;2022-08-19T06:30:39;6.03;;;2.60;;
35909;SDS011;22004;49.120;-0.200;2022-08-19T06:33:05;5.43;;;2.97;;
35909;SDS011;22004;49.120;-0.200;2022-08-19T06:35:30;3.83;;;2.60;;
35909;SDS011;22004;49.120;-0.200;2022-08-19T06:37:56;9.30;;;2.55;;
35909;SDS011;22004;49.120;-0.200;2022-08-19T06:40:21;8.60;;;3.30;;
35909;SDS011;22004;49.120;-0.200;2022-08-19T06:42:46;6.50;;;3.17;;
35909;SDS011;22004;49.120;-0.200;2022-08-19T06:45:12;4.18;;;2.55;;
35909;SDS011;22004;49.120;-0.200;2022-08-19T06:47:37;8.27;;;3.17;;
35909;SDS011;22004;49.120;-0.200;2022-08-19T06:50:03;5.50;;;2.88;;
35909;SDS011;22004;49.120;-0.200;2022-08-19T06:52:33;6.57;;;3.00;;
35909;SDS011;22004;49.120;-0.200;2022-08-19T06:55:00;5.10;;;2.60;;
35909;SDS011;22004;49.120;-0.200;2022-08-19T06:57:26;4.47;;;2.80;;
35909;SDS011;22004;49.120;-0.200;2022-08-19T06:59:56;8.43;;;3.40;;
35909;SDS011;22004;49.120;-0.200;2022-08-19T07:02:21;3.72;;;2.67;;
35909;SDS011;22004;49.120;-0.200;2022-08-19T07:04:51;7.70;;;3.15;;
35909;SDS011;22004;49.120;-0.200;2022-08-19T07:07:16;9.77;;;3.33;;
35909;SDS011;22004;49.120;-0.200;2022-08-19T07:09:42;9.70;;;3.33;;
35909;SDS011;22004;49.120;-0.200;2022-08-19T07:12:11;6.78;;;2.85;;
35909;SDS011;22004;49.120;-0.200;2022-08-19T07:14:39;6.35;;;3.13;;
35909;SDS011;22004;49.120;-0.200;2022-08-19T07:17:06;7.97;;;3.33;;
35909;SDS011;22004;49.120;-0.200;2022-08-19T07:19:34;7.10;;;3.35;;
35909;SDS011;22004;49.120;-0.200;2022-08-19T07:22:01;4.40;;;2.63;;
35909;SDS011;22004;49.120;-0.200;2022-08-19T07:24:28;4.90;;;2.50;;
35909;SDS011;22004;49.120;-0.200;2022-08-19T07:26:55;6.68;;;2.97;;
35909;SDS011;22004;49.120;-0.200;2022-08-19T07:29:25;7.40;;;3.03;;
35909;SDS011;22004;49.120;-0.200;2022-08-19T07:31:52;9.13;;;2.90;;
35909;SDS011;22004;49.120;-0.200;2022-08-19T07:34:17;12.63;;;3.22;;
35909;SDS011;22004;49.120;-0.200;2022-08-19T07:36:44;6.03;;;2.75;;
35909;SDS011;22004;49.120;-0.200;2022-08-19T07:39:14;8.40;;;3.13;;
35909;SDS011;22004;49.120;-0.200;2022-08-19T07:41:43;7.03;;;2.50;;
35909;SDS011;22004;49.120;-0.200;2022-08-19T07:44:09;6.45;;;2.17;;
35909;SDS011;22004;49.120;-0.200;2022-08-19T07:46:38;3.85;;;2.50;;
35909;SDS011;22004;49.120;-0.200;2022-08-19T07:49:05;6.50;;;2.67;;
35909;SDS011;22004;49.120;-0.200;2022-08-19T07:51:31;9.95;;;2.72;;
35909;SDS011;22004;49.120;-0.200;2022-08-19T07:53:57;4.57;;;2.15;;
35909;SDS011;22004;49.120;-0.200;2022-08-19T07:56:23;6.88;;;2.70;;
35909;SDS011;22004;49.120;-0.200;2022-08-19T07:58:49;6.85;;;2.63;;
35909;SDS011;22004;49.120;-0.200;2022-08-19T08:01:23;6.45;;;2.60;;
35909;SDS011;22004;49.120;-0.200;2022-08-19T08:03:51;4.43;;;2.22;;
35909;SDS011;22004;49.120;-0.200;2022-08-19T08:06:36;6.55;;;2.30;;
35909;SDS011;22004;49.120;-0.200;2022-08-19T08:09:24;7.03;;;2.50;;
35909;SDS011;22004;49.120;-0.200;2022-08-19T08:14:51;8.68;;;2.95;;
35909;SDS011;22004;49.120;-0.200;2022-08-19T08:17:19;6.00;;;2.10;;
35909;SDS011;22004;49.120;-0.200;2022-08-19T08:19:46;5.32;;;2.20;;
35909;SDS011;22004;49.120;-0.200;2022-08-19T08:22:14;6.32;;;2.22;;
35909;SDS011;22004;49.120;-0.200;2022-08-19T08:25:02;3.85;;;2.05;;
35909;SDS011;22004;49.120;-0.200;2022-08-19T08:27:29;3.55;;;2.03;;
35909;SDS011;22004;49.120;-0.200;2022-08-19T08:29:56;4.63;;;2.38;;
35909;SDS011;22004;49.120;-0.200;2022-08-19T08:32:21;6.03;;;2.05;;
35909;SDS011;22004;49.120;-0.200;2022-08-19T08:34:47;4.97;;;2.05;;
35909;SDS011;22004;49.120;-0.200;2022-08-19T08:37:13;3.75;;;1.95;;
35909;SDS011;22004;49.120;-0.200;2022-08-19T08:39:39;6.68;;;2.10;;
35909;SDS011;22004;49.120;-0.200;2022-08-19T08:42:24;3.33;;;1.40;;
35909;SDS011;22004;49.120;-0.200;2022-08-19T08:47:24;3.70;;;2.40;;
35909;SDS011;22004;49.120;-0.200;2022-08-19T08:50:16;5.03;;;2.08;;
35909;SDS011;22004;49.120;-0.200;2022-08-19T08:52:47;6.32;;;1.88;;
35909;SDS011;22004;49.120;-0.200;2022-08-19T08:55:17;4.15;;;1.92;;
35909;SDS011;22004;49.120;-0.200;2022-08-19T09:00:15;4.20;;;1.60;;
35909;SDS011;22004;49.120;-0.200;2022-08-19T09:02:53;3.78;;;2.00;;
35909;SDS011;22004;49.120;-0.200;2022-08-19T09:05:19;2.90;;;2.00;;
35909;SDS011;22004;49.120;-0.200;2022-08-19T09:07:55;3.78;;;1.60;;
35909;SDS011;22004;49.120;-0.200;2022-08-19T09:15:54;2.90;;;1.73;;
35909;SDS011;22004;49.120;-0.200;2022-08-19T09:18:29;5.28;;;1.75;;
35909;SDS011;22004;49.120;-0.200;2022-08-19T09:21:24;6.47;;;1.80;;
35909;SDS011;22004;49.120;-0.200;2022-08-19T09:23:51;4.85;;;1.65;;
35909;SDS011;22004;49.120;-0.200;2022-08-19T09:26:17;3.90;;;1.80;;
35909;SDS011;22004;49.120;-0.200;2022-08-19T09:28:46;2.80;;;1.58;;
35909;SDS011;22004;49.120;-0.200;2022-08-19T09:31:17;5.13;;;1.70;;
35909;SDS011;22004;49.120;-0.200;2022-08-19T09:33:44;4.53;;;1.90;;
35909;SDS011;22004;49.120;-0.200;2022-08-19T09:36:12;4.38;;;1.95;;
35909;SDS011;22004;49.120;-0.200;2022-08-19T09:38:40;15.98;;;2.42;;
35909;SDS011;22004;49.120;-0.200;2022-08-19T09:41:07;7.18;;;1.90;;
35909;SDS011;22004;49.120;-0.200;2022-08-19T09:43:36;7.10;;;1.83;;
35909;SDS011;22004;49.120;-0.200;2022-08-19T09:46:02;4.10;;;1.60;;
35909;SDS011;22004;49.120;-0.200;2022-08-19T09:48:31;2.78;;;1.80;;
35909;SDS011;22004;49.120;-0.200;2022-08-19T09:51:04;4.40;;;1.45;;
35909;SDS011;22004;49.120;-0.200;2022-08-19T09:53:32;6.75;;;2.25;;
35909;SDS011;22004;49.120;-0.200;2022-08-19T09:55:58;3.60;;;1.55;;
35909;SDS011;22004;49.120;-0.200;2022-08-19T09:58:24;4.65;;;1.80;;
35909;SDS011;22004;49.120;-0.200;2022-08-19T10:00:53;4.95;;;1.95;;
35909;SDS011;22004;49.120;-0.200;2022-08-19T10:03:19;3.38;;;1.40;;
35909;SDS011;22004;49.120;-0.200;2022-08-19T10:05:45;5.55;;;1.70;;
35909;SDS011;22004;49.120;-0.200;2022-08-19T10:08:13;6.00;;;1.70;;
35909;SDS011;22004;49.120;-0.200;2022-08-19T10:10:39;5.30;;;1.73;;
35909;SDS011;22004;49.120;-0.200;2022-08-19T10:13:08;4.20;;;1.70;;
35909;SDS011;22004;49.120;-0.200;2022-08-19T10:15:34;7.40;;;2.20;;
35909;SDS011;22004;49.120;-0.200;2022-08-19T10:17:59;5.22;;;1.48;;
35909;SDS011;22004;49.120;-0.200;2022-08-19T10:20:25;4.75;;;1.90;;
35909;SDS011;22004;49.120;-0.200;2022-08-19T10:22:50;3.63;;;1.65;;
35909;SDS011;22004;49.120;-0.200;2022-08-19T10:25:15;3.42;;;1.70;;
35909;SDS011;22004;49.120;-0.200;2022-08-19T10:27:41;3.83;;;1.75;;
35909;SDS011;22004;49.120;-0.200;2022-08-19T10:30:07;5.28;;;2.25;;
35909;SDS011;22004;49.120;-0.200;2022-08-19T10:32:33;3.67;;;1.58;;
35909;SDS011;22004;49.120;-0.200;2022-08-19T10:34:58;4.18;;;1.80;;
35909;SDS011;22004;49.120;-0.200;2022-08-19T10:37:24;5.15;;;1.90;;
35909;SDS011;22004;49.120;-0.200;2022-08-19T10:39:49;5.20;;;2.13;;
35909;SDS011;22004;49.120;-0.200;2022-08-19T10:42:15;6.53;;;1.80;;
35909;SDS011;22004;49.120;-0.200;2022-08-19T10:44:43;3.47;;;1.67;;
35909;SDS011;22004;49.120;-0.200;2022-08-19T10:47:09;6.32;;;1.70;;
35909;SDS011;22004;49.120;-0.200;2022-08-19T10:49:34;3.53;;;1.65;;
35909;SDS011;22004;49.120;-0.200;2022-08-19T10:52:19;6.07;;;2.17;;
35909;SDS011;22004;49.120;-0.200;2022-08-19T10:55:03;8.65;;;1.80;;
35909;SDS011;22004;49.120;-0.200;2022-08-19T10:57:49;7.63;;;2.60;;
35909;SDS011;22004;49.120;-0.200;2022-08-19T11:00:15;6.50;;;2.20;;
35909;SDS011;22004;49.120;-0.200;2022-08-19T11:02:41;3.80;;;1.58;;
35909;SDS011;22004;49.120;-0.200;2022-08-19T11:05:07;3.53;;;1.90;;
35909;SDS011;22004;49.120;-0.200;2022-08-19T11:07:34;20.45;;;2.50;;
35909;SDS011;22004;49.120;-0.200;2022-08-19T11:10:01;9.55;;;2.35;;
35909;SDS011;22004;49.120;-0.200;2022-08-19T11:12:28;4.13;;;2.15;;
35909;SDS011;22004;49.120;-0.200;2022-08-19T11:14:53;4.40;;;1.88;;
35909;SDS011;22004;49.120;-0.200;2022-08-19T11:17:19;6.75;;;1.88;;
35909;SDS011;22004;49.120;-0.200;2022-08-19T11:19:45;6.90;;;2.22;;
35909;SDS011;22004;49.120;-0.200;2022-08-19T11:22:11;5.72;;;2.10;;
35909;SDS011;22004;49.120;-0.200;2022-08-19T11:24:37;10.25;;;2.63;;
35909;SDS011;22004;49.120;-0.200;2022-08-19T11:27:06;5.35;;;1.88;;
35909;SDS011;22004;49.120;-0.200;2022-08-19T11:29:34;6.90;;;2.15;;
35909;SDS011;22004;49.120;-0.200;2022-08-19T11:32:06;7.45;;;2.42;;
35909;SDS011;22004;49.120;-0.200;2022-08-19T11:34:34;3.97;;;2.00;;
35909;SDS011;22004;49.120;-0.200;2022-08-19T11:37:00;4.25;;;2.03;;
35909;SDS011;22004;49.120;-0.200;2022-08-19T11:39:27;7.38;;;2.00;;
35909;SDS011;22004;49.120;-0.200;2022-08-19T11:41:54;6.68;;;2.65;;
35909;SDS011;22004;49.120;-0.200;2022-08-19T11:44:19;5.78;;;2.15;;
35909;SDS011;22004;49.120;-0.200;2022-08-19T11:46:45;9.98;;;2.40;;
35909;SDS011;22004;49.120;-0.200;2022-08-19T11:49:12;6.60;;;2.45;;
35909;SDS011;22004;49.120;-0.200;2022-08-19T11:51:38;6.32;;;2.50;;
35909;SDS011;22004;49.120;-0.200;2022-08-19T11:54:04;5.75;;;2.15;;
35909;SDS011;22004;49.120;-0.200;2022-08-19T11:56:31;3.70;;;1.85;;
35909;SDS011;22004;49.120;-0.200;2022-08-19T11:58:56;2.67;;;1.48;;
35909;SDS011;22004;49.120;-0.200;2022-08-19T12:01:23;3.40;;;1.65;;
35909;SDS011;22004;49.120;-0.200;2022-08-19T12:03:50;3.75;;;1.13;;
35909;SDS011;22004;49.120;-0.200;2022-08-19T12:06:19;5.88;;;1.80;;
35909;SDS011;22004;49.120;-0.200;2022-08-19T12:08:53;8.00;;;1.40;;
35909;SDS011;22004;49.120;-0.200;2022-08-19T12:11:20;4.68;;;1.55;;
35909;SDS011;22004;49.120;-0.200;2022-08-19T12:13:45;2.83;;;1.17;;
35909;SDS011;22004;49.120;-0.200;2022-08-19T12:16:19;3.22;;;1.38;;
35909;SDS011;22004;49.120;-0.200;2022-08-19T12:18:46;5.53;;;1.20;;
35909;SDS011;22004;49.120;-0.200;2022-08-19T12:21:15;2.72;;;1.20;;
35909;SDS011;22004;49.120;-0.200;2022-08-19T12:23:46;2.28;;;1.20;;
35909;SDS011;22004;49.120;-0.200;2022-08-19T12:26:12;1.20;;;0.70;;
35909;SDS011;22004;49.120;-0.200;2022-08-19T12:28:38;4.88;;;1.15;;
35909;SDS011;22004;49.120;-0.200;2022-08-19T12:31:04;1.85;;;1.20;;
35909;SDS011;22004;49.120;-0.200;2022-08-19T12:33:30;4.00;;;1.33;;
35909;SDS011;22004;49.120;-0.200;2022-08-19T12:35:59;1.67;;;0.73;;
35909;SDS011;22004;49.120;-0.200;2022-08-19T12:38:28;2.65;;;1.00;;
35909;SDS011;22004;49.120;-0.200;2022-08-19T12:40:53;2.33;;;1.00;;
35909;SDS011;22004;49.120;-0.200;2022-08-19T12:43:19;3.40;;;1.10;;
35909;SDS011;22004;49.120;-0.200;2022-08-19T12:45:45;5.28;;;1.35;;
35909;SDS011;22004;49.120;-0.200;2022-08-19T12:48:11;3.53;;;1.55;;
35909;SDS011;22004;49.120;-0.200;2022-08-19T12:50:43;4.05;;;1.35;;
35909;SDS011;22004;49.120;-0.200;2022-08-19T12:55:38;1.67;;;0.70;;
35909;SDS011;22004;49.120;-0.200;2022-08-19T12:58:03;2.58;;;0.90;;
35909;SDS011;22004;49.120;-0.200;2022-08-19T13:00:29;4.90;;;0.88;;
35909;SDS011;22004;49.120;-0.200;2022-08-19T13:02:55;0.77;;;0.60;;
35909;SDS011;22004;49.120;-0.200;2022-08-19T13:05:22;6.25;;;1.20;;
35909;SDS011;22004;49.120;-0.200;2022-08-19T13:07:51;6.28;;;1.10;;
35909;SDS011;22004;49.120;-0.200;2022-08-19T13:10:20;0.77;;;0.77;;
35909;SDS011;22004;49.120;-0.200;2022-08-19T13:12:48;2.20;;;1.05;;
35909;SDS011;22004;49.120;-0.200;2022-08-19T13:15:15;1.90;;;1.00;;
35909;SDS011;22004;49.120;-0.200;2022-08-19T13:17:46;1.85;;;0.80;;
35909;SDS011;22004;49.120;-0.200;2022-08-19T13:20:14;1.27;;;0.55;;
35909;SDS011;22004;49.120;-0.200;2022-08-19T13:22:40;4.22;;;0.85;;
35909;SDS011;22004;49.120;-0.200;2022-08-19T13:25:06;3.40;;;1.00;;
35909;SDS011;22004;49.120;-0.200;2022-08-19T13:27:32;6.43;;;0.90;;
35909;SDS011;22004;49.120;-0.200;2022-08-19T13:30:00;2.20;;;0.90;;
35909;SDS011;22004;49.120;-0.200;2022-08-19T13:32:44;5.68;;;0.98;;
35909;SDS011;22004;49.120;-0.200;2022-08-19T13:35:28;4.20;;;0.95;;
35909;SDS011;22004;49.120;-0.200;2022-08-19T13:37:53;7.53;;;0.93;;
35909;SDS011;22004;49.120;-0.200;2022-08-19T13:40:20;10.25;;;1.33;;
35909;SDS011;22004;49.120;-0.200;2022-08-19T13:42:49;6.68;;;0.90;;
35909;SDS011;22004;49.120;-0.200;2022-08-19T13:45:18;6.72;;;0.98;;
35909;SDS011;22004;49.120;-0.200;2022-08-19T13:47:45;4.47;;;0.75;;
35909;SDS011;22004;49.120;-0.200;2022-08-19T13:50:13;4.43;;;0.90;;
35909;SDS011;22004;49.120;-0.200;2022-08-19T13:52:41;1.15;;;0.70;;
35909;SDS011;22004;49.120;-0.200;2022-08-19T13:55:08;3.33;;;1.48;;
35909;SDS011;22004;49.120;-0.200;2022-08-19T13:57:34;2.65;;;0.90;;
35909;SDS011;22004;49.120;-0.200;2022-08-19T14:00:01;1.50;;;0.68;;
35909;SDS011;22004;49.120;-0.200;2022-08-19T14:02:28;2.10;;;0.80;;
35909;SDS011;22004;49.120;-0.200;2022-08-19T14:04:53;2.00;;;0.90;;
35909;SDS011;22004;49.120;-0.200;2022-08-19T14:07:19;1.90;;;1.00;;
35909;SDS011;22004;49.120;-0.200;2022-08-19T14:09:45;4.85;;;1.00;;
35909;SDS011;22004;49.120;-0.200;2022-08-19T14:12:10;1.20;;;0.80;;
35909;SDS011;22004;49.120;-0.200;2022-08-19T14:14:38;1.35;;;0.80;;
35909;SDS011;22004;49.120;-0.200;2022-08-19T14:17:07;1.58;;;0.77;;
35909;SDS011;22004;49.120;-0.200;2022-08-19T14:19:34;2.05;;;0.85;;
35909;SDS011;22004;49.120;-0.200;2022-08-19T14:22:00;1.60;;;0.70;;
35909;SDS011;22004;49.120;-0.200;2022-08-19T14:24:25;0.73;;;0.63;;
35909;SDS011;22004;49.120;-0.200;2022-08-19T14:26:51;4.50;;;0.90;;
35909;SDS011;22004;49.120;-0.200;2022-08-19T14:29:16;1.17;;;0.75;;
35909;SDS011;22004;49.120;-0.200;2022-08-19T14:31:42;1.30;;;0.70;;
35909;SDS011;22004;49.120;-0.200;2022-08-19T14:34:08;1.27;;;0.75;;
35909;SDS011;22004;49.120;-0.200;2022-08-19T14:36:35;5.68;;;0.90;;
35909;SDS011;22004;49.120;-0.200;2022-08-19T14:39:01;1.45;;;0.80;;
35909;SDS011;22004;49.120;-0.200;2022-08-19T14:41:27;2.28;;;0.80;;
35909;SDS011;22004;49.120;-0.200;2022-08-19T14:43:53;1.63;;;0.70;;
35909;SDS011;22004;49.120;-0.200;2022-08-19T14:46:21;1.50;;;0.93;;
35909;SDS011;22004;49.120;-0.200;2022-08-19T14:48:48;1.77;;;0.85;;
35909;SDS011;22004;49.120;-0.200;2022-08-19T14:51:14;1.52;;;1.00;;
35909;SDS011;22004;49.120;-0.200;2022-08-19T14:53:41;2.17;;;1.00;;
35909;SDS011;22004;49.120;-0.200;2022-08-19T14:56:07;0.80;;;0.80;;